sensor_id;sensor_type;location;lat;lon;timestamp;temperature;humidity
69776;DHT22;57049;51.450;-2.516;2023-05-15T00:00:08;12.45;96.29
69776;DHT22;57049;51.450;-2.516;2023-05-15T00:02:37;12.48;96.25
69776;DHT22;57049;51.450;-2.516;2023-05-15T00:05:07;12.42;96.23
69776;DHT22;57049;51.450;-2.516;2023-05-15T00:07:34;12.44;96.25
69776;DHT22;57049;51.450;-2.516;2023-05-15T00:10:00;12.48;96.31
69776;DHT22;57049;51.450;-2.516;2023-05-15T00:12:25;12.34;95.56
69776;DHT22;57049;51.450;-2.516;2023-05-15T00:14:51;12.22;93.71
69776;DHT22;57049;51.450;-2.516;2023-05-15T00:17:16;12.08;91.78
69776;DHT22;57049;51.450;-2.516;2023-05-15T00:19:42;12.08;91.33
69776;DHT22;57049;51.450;-2.516;2023-05-15T00:22:07;11.98;91.06
69776;DHT22;57049;51.450;-2.516;2023-05-15T00:24:33;11.98;91.28
69776;DHT22;57049;51.450;-2.516;2023-05-15T00:26:59;11.94;90.04
69776;DHT22;57049;51.450;-2.516;2023-05-15T00:29:25;11.90;90.38
69776;DHT22;57049;51.450;-2.516;2023-05-15T00:31:50;11.84;89.69
69776;DHT22;57049;51.450;-2.516;2023-05-15T00:34:16;11.83;90.10
69776;DHT22;57049;51.450;-2.516;2023-05-15T00:36:42;11.77;90.65
69776;DHT22;57049;51.450;-2.516;2023-05-15T00:39:08;11.66;90.33
69776;DHT22;57049;51.450;-2.516;2023-05-15T00:41:34;11.71;90.89
69776;DHT22;57049;51.450;-2.516;2023-05-15T00:44:01;11.62;90.49
69776;DHT22;57049;51.450;-2.516;2023-05-15T00:46:27;11.74;91.10
69776;DHT22;57049;51.450;-2.516;2023-05-15T00:48:55;11.63;90.10
69776;DHT22;57049;51.450;-2.516;2023-05-15T00:51:20;11.62;89.68
69776;DHT22;57049;51.450;-2.516;2023-05-15T00:53:46;11.59;89.63
69776;DHT22;57049;51.450;-2.516;2023-05-15T00:56:11;11.50;89.61
69776;DHT22;57049;51.450;-2.516;2023-05-15T00:58:37;11.50;88.08
69776;DHT22;57049;51.450;-2.516;2023-05-15T01:01:03;11.44;87.97
69776;DHT22;57049;51.450;-2.516;2023-05-15T01:03:29;11.43;87.72
69776;DHT22;57049;51.450;-2.516;2023-05-15T01:05:54;11.42;87.61
69776;DHT22;57049;51.450;-2.516;2023-05-15T01:08:26;11.37;87.05
69776;DHT22;57049;51.450;-2.516;2023-05-15T01:10:54;11.32;87.08
69776;DHT22;57049;51.450;-2.516;2023-05-15T01:13:21;11.33;86.96
69776;DHT22;57049;51.450;-2.516;2023-05-15T01:15:48;11.36;87.37
69776;DHT22;57049;51.450;-2.516;2023-05-15T01:18:14;11.27;86.82
69776;DHT22;57049;51.450;-2.516;2023-05-15T01:29:28;11.26;86.04
69776;DHT22;57049;51.450;-2.516;2023-05-15T01:32:02;11.25;87.26
69776;DHT22;57049;51.450;-2.516;2023-05-15T01:34:36;11.19;87.01
69776;DHT22;57049;51.450;-2.516;2023-05-15T01:37:05;11.16;87.51
69776;DHT22;57049;51.450;-2.516;2023-05-15T01:39:32;11.12;87.77
69776;DHT22;57049;51.450;-2.516;2023-05-15T01:42:09;11.05;87.24
69776;DHT22;57049;51.450;-2.516;2023-05-15T01:44:41;11.03;86.48
69776;DHT22;57049;51.450;-2.516;2023-05-15T01:47:12;10.99;86.25
69776;DHT22;57049;51.450;-2.516;2023-05-15T01:49:38;10.99;85.62
69776;DHT22;57049;51.450;-2.516;2023-05-15T01:52:13;10.95;86.09
69776;DHT22;57049;51.450;-2.516;2023-05-15T01:54:41;10.85;85.08
69776;DHT22;57049;51.450;-2.516;2023-05-15T01:57:08;10.79;84.96
69776;DHT22;57049;51.450;-2.516;2023-05-15T01:59:34;10.82;84.86
69776;DHT22;57049;51.450;-2.516;2023-05-15T02:02:03;10.78;84.79
69776;DHT22;57049;51.450;-2.516;2023-05-15T02:04:29;10.76;84.96
69776;DHT22;57049;51.450;-2.516;2023-05-15T02:06:55;10.69;84.49
69776;DHT22;57049;51.450;-2.516;2023-05-15T02:09:21;10.64;84.43
69776;DHT22;57049;51.450;-2.516;2023-05-15T02:11:48;10.64;86.09
69776;DHT22;57049;51.450;-2.516;2023-05-15T02:14:15;10.61;86.44
69776;DHT22;57049;51.450;-2.516;2023-05-15T02:16:41;10.57;85.95
69776;DHT22;57049;51.450;-2.516;2023-05-15T02:19:06;10.57;86.06
69776;DHT22;57049;51.450;-2.516;2023-05-15T02:21:33;10.57;85.73
69776;DHT22;57049;51.450;-2.516;2023-05-15T02:23:58;10.55;86.20
69776;DHT22;57049;51.450;-2.516;2023-05-15T02:35:25;10.36;85.53
69776;DHT22;57049;51.450;-2.516;2023-05-15T02:37:55;10.27;85.49
69776;DHT22;57049;51.450;-2.516;2023-05-15T02:40:23;10.24;84.35
69776;DHT22;57049;51.450;-2.516;2023-05-15T02:42:51;10.16;83.78
69776;DHT22;57049;51.450;-2.516;2023-05-15T02:45:18;10.16;83.89
69776;DHT22;57049;51.450;-2.516;2023-05-15T02:47:44;10.16;82.83
69776;DHT22;57049;51.450;-2.516;2023-05-15T02:50:10;10.09;83.41
69776;DHT22;57049;51.450;-2.516;2023-05-15T02:52:36;10.06;83.05
69776;DHT22;57049;51.450;-2.516;2023-05-15T02:55:01;10.07;83.12
69776;DHT22;57049;51.450;-2.516;2023-05-15T02:57:27;9.99;83.12
69776;DHT22;57049;51.450;-2.516;2023-05-15T02:59:53;9.96;83.05
69776;DHT22;57049;51.450;-2.516;2023-05-15T03:02:19;9.96;83.28
69776;DHT22;57049;51.450;-2.516;2023-05-15T03:04:45;9.89;82.87
69776;DHT22;57049;51.450;-2.516;2023-05-15T03:07:10;9.83;83.14
69776;DHT22;57049;51.450;-2.516;2023-05-15T03:09:36;9.82;81.94
69776;DHT22;57049;51.450;-2.516;2023-05-15T03:12:01;9.83;81.95
69776;DHT22;57049;51.450;-2.516;2023-05-15T03:14:26;9.80;81.55
69776;DHT22;57049;51.450;-2.516;2023-05-15T03:16:52;9.79;80.81
69776;DHT22;57049;51.450;-2.516;2023-05-15T03:19:17;9.79;79.87
69776;DHT22;57049;51.450;-2.516;2023-05-15T03:21:43;9.80;79.77
69776;DHT22;57049;51.450;-2.516;2023-05-15T03:24:08;9.76;79.68
69776;DHT22;57049;51.450;-2.516;2023-05-15T03:26:34;9.75;80.90
69776;DHT22;57049;51.450;-2.516;2023-05-15T03:29:00;9.75;79.18
69776;DHT22;57049;51.450;-2.516;2023-05-15T03:31:25;9.73;79.52
69776;DHT22;57049;51.450;-2.516;2023-05-15T03:33:51;9.70;79.66
69776;DHT22;57049;51.450;-2.516;2023-05-15T03:36:16;9.70;78.90
69776;DHT22;57049;51.450;-2.516;2023-05-15T03:38:41;9.65;80.04
69776;DHT22;57049;51.450;-2.516;2023-05-15T03:41:09;9.66;80.43
69776;DHT22;57049;51.450;-2.516;2023-05-15T03:43:34;9.60;81.15
69776;DHT22;57049;51.450;-2.516;2023-05-15T03:46:00;9.63;79.56
69776;DHT22;57049;51.450;-2.516;2023-05-15T03:48:25;9.66;79.76
69776;DHT22;57049;51.450;-2.516;2023-05-15T03:50:51;9.65;80.85
69776;DHT22;57049;51.450;-2.516;2023-05-15T03:53:16;9.66;80.46
69776;DHT22;57049;51.450;-2.516;2023-05-15T03:55:42;9.72;81.37
69776;DHT22;57049;51.450;-2.516;2023-05-15T03:58:08;9.68;80.56
69776;DHT22;57049;51.450;-2.516;2023-05-15T04:00:33;9.69;80.25
69776;DHT22;57049;51.450;-2.516;2023-05-15T04:02:59;9.72;79.84
69776;DHT22;57049;51.450;-2.516;2023-05-15T04:05:24;9.72;80.78
69776;DHT22;57049;51.450;-2.516;2023-05-15T04:07:50;9.69;80.02
69776;DHT22;57049;51.450;-2.516;2023-05-15T04:10:15;9.66;79.61
69776;DHT22;57049;51.450;-2.516;2023-05-15T04:12:41;9.65;79.06
69776;DHT22;57049;51.450;-2.516;2023-05-15T04:17:51;9.68;78.99
69776;DHT22;57049;51.450;-2.516;2023-05-15T04:20:19;9.69;80.92
69776;DHT22;57049;51.450;-2.516;2023-05-15T04:22:45;9.60;79.87
69776;DHT22;57049;51.450;-2.516;2023-05-15T04:25:12;9.58;80.53
69776;DHT22;57049;51.450;-2.516;2023-05-15T04:27:39;9.56;80.13
69776;DHT22;57049;51.450;-2.516;2023-05-15T04:30:05;9.56;79.64
69776;DHT22;57049;51.450;-2.516;2023-05-15T04:32:32;9.66;80.03
69776;DHT22;57049;51.450;-2.516;2023-05-15T04:35:02;9.65;79.84
69776;DHT22;57049;51.450;-2.516;2023-05-15T04:37:30;9.65;80.59
69776;DHT22;57049;51.450;-2.516;2023-05-15T04:39:55;9.62;79.11
69776;DHT22;57049;51.450;-2.516;2023-05-15T04:42:20;9.58;78.98
69776;DHT22;57049;51.450;-2.516;2023-05-15T04:44:46;9.58;78.82
69776;DHT22;57049;51.450;-2.516;2023-05-15T04:47:12;9.59;78.26
69776;DHT22;57049;51.450;-2.516;2023-05-15T04:49:39;9.58;78.17
69776;DHT22;57049;51.450;-2.516;2023-05-15T04:52:05;9.69;78.83
69776;DHT22;57049;51.450;-2.516;2023-05-15T04:54:30;9.66;77.96
69776;DHT22;57049;51.450;-2.516;2023-05-15T04:56:56;9.68;77.99
69776;DHT22;57049;51.450;-2.516;2023-05-15T04:59:22;9.68;78.19
69776;DHT22;57049;51.450;-2.516;2023-05-15T05:01:50;9.66;78.18
69776;DHT22;57049;51.450;-2.516;2023-05-15T05:04:15;9.68;77.58
69776;DHT22;57049;51.450;-2.516;2023-05-15T05:06:44;9.62;78.26
69776;DHT22;57049;51.450;-2.516;2023-05-15T05:09:09;9.65;77.94
69776;DHT22;57049;51.450;-2.516;2023-05-15T05:11:35;9.70;78.60
69776;DHT22;57049;51.450;-2.516;2023-05-15T05:14:00;9.80;77.93
69776;DHT22;57049;51.450;-2.516;2023-05-15T05:16:26;9.78;77.54
69776;DHT22;57049;51.450;-2.516;2023-05-15T05:18:51;9.70;77.52
69776;DHT22;57049;51.450;-2.516;2023-05-15T05:21:17;9.72;78.01
69776;DHT22;57049;51.450;-2.516;2023-05-15T05:23:42;9.53;76.80
69776;DHT22;57049;51.450;-2.516;2023-05-15T05:26:08;9.58;77.00
69776;DHT22;57049;51.450;-2.516;2023-05-15T05:28:33;9.69;77.59
69776;DHT22;57049;51.450;-2.516;2023-05-15T05:30:59;9.70;78.12
69776;DHT22;57049;51.450;-2.516;2023-05-15T05:33:24;9.66;77.18
69776;DHT22;57049;51.450;-2.516;2023-05-15T05:35:49;9.63;77.23
69776;DHT22;57049;51.450;-2.516;2023-05-15T05:38:16;9.89;76.53
69776;DHT22;57049;51.450;-2.516;2023-05-15T05:40:41;10.21;75.55
69776;DHT22;57049;51.450;-2.516;2023-05-15T05:43:07;10.55;75.57
69776;DHT22;57049;51.450;-2.516;2023-05-15T05:45:32;10.54;74.87
69776;DHT22;57049;51.450;-2.516;2023-05-15T05:47:58;10.72;73.10
69776;DHT22;57049;51.450;-2.516;2023-05-15T05:50:23;10.99;73.02
69776;DHT22;57049;51.450;-2.516;2023-05-15T05:52:49;11.52;71.18
69776;DHT22;57049;51.450;-2.516;2023-05-15T05:55:15;11.88;70.75
69776;DHT22;57049;51.450;-2.516;2023-05-15T05:57:40;12.34;68.47
69776;DHT22;57049;51.450;-2.516;2023-05-15T06:00:07;13.04;66.70
69776;DHT22;57049;51.450;-2.516;2023-05-15T06:02:36;13.39;66.05
69776;DHT22;57049;51.450;-2.516;2023-05-15T06:05:02;12.28;68.02
69776;DHT22;57049;51.450;-2.516;2023-05-15T06:07:28;12.60;67.68
69776;DHT22;57049;51.450;-2.516;2023-05-15T06:09:54;12.79;66.24
69776;DHT22;57049;51.450;-2.516;2023-05-15T06:12:19;13.55;65.99
69776;DHT22;57049;51.450;-2.516;2023-05-15T06:14:45;13.89;63.81
69776;DHT22;57049;51.450;-2.516;2023-05-15T06:17:11;13.40;63.31
69776;DHT22;57049;51.450;-2.516;2023-05-15T06:19:36;12.35;65.10
69776;DHT22;57049;51.450;-2.516;2023-05-15T06:22:02;12.76;65.21
69776;DHT22;57049;51.450;-2.516;2023-05-15T06:24:28;13.21;65.71
69776;DHT22;57049;51.450;-2.516;2023-05-15T06:26:53;12.99;64.31
69776;DHT22;57049;51.450;-2.516;2023-05-15T06:29:19;13.92;63.31
69776;DHT22;57049;51.450;-2.516;2023-05-15T06:31:44;12.82;66.30
69776;DHT22;57049;51.450;-2.516;2023-05-15T06:34:09;12.92;63.79
69776;DHT22;57049;51.450;-2.516;2023-05-15T06:36:35;13.64;65.29
69776;DHT22;57049;51.450;-2.516;2023-05-15T06:39:01;12.49;64.94
69776;DHT22;57049;51.450;-2.516;2023-05-15T06:41:26;12.60;65.68
69776;DHT22;57049;51.450;-2.516;2023-05-15T06:43:52;12.52;65.73
69776;DHT22;57049;51.450;-2.516;2023-05-15T06:46:19;12.95;63.47
69776;DHT22;57049;51.450;-2.516;2023-05-15T06:48:46;12.29;65.12
69776;DHT22;57049;51.450;-2.516;2023-05-15T06:51:11;13.02;64.59
69776;DHT22;57049;51.450;-2.516;2023-05-15T06:53:37;13.43;62.76
69776;DHT22;57049;51.450;-2.516;2023-05-15T06:56:02;13.70;62.59
69776;DHT22;57049;51.450;-2.516;2023-05-15T06:58:28;12.52;61.93
69776;DHT22;57049;51.450;-2.516;2023-05-15T07:00:53;13.20;64.58
69776;DHT22;57049;51.450;-2.516;2023-05-15T07:03:19;12.41;65.21
69776;DHT22;57049;51.450;-2.516;2023-05-15T07:05:44;12.32;64.16
69776;DHT22;57049;51.450;-2.516;2023-05-15T07:08:10;12.90;62.06
69776;DHT22;57049;51.450;-2.516;2023-05-15T07:10:35;12.55;63.35
69776;DHT22;57049;51.450;-2.516;2023-05-15T07:13:01;12.82;62.20
69776;DHT22;57049;51.450;-2.516;2023-05-15T07:15:26;14.15;60.21
69776;DHT22;57049;51.450;-2.516;2023-05-15T07:17:52;14.50;58.79
69776;DHT22;57049;51.450;-2.516;2023-05-15T07:20:17;13.64;59.68
69776;DHT22;57049;51.450;-2.516;2023-05-15T07:22:42;13.33;61.22
69776;DHT22;57049;51.450;-2.516;2023-05-15T07:25:08;13.57;61.26
69776;DHT22;57049;51.450;-2.516;2023-05-15T07:27:34;14.25;61.76
69776;DHT22;57049;51.450;-2.516;2023-05-15T07:30:01;14.88;57.55
69776;DHT22;57049;51.450;-2.516;2023-05-15T07:32:28;14.11;59.38
69776;DHT22;57049;51.450;-2.516;2023-05-15T07:34:53;14.85;58.70
69776;DHT22;57049;51.450;-2.516;2023-05-15T07:37:19;14.83;57.60
69776;DHT22;57049;51.450;-2.516;2023-05-15T07:39:44;15.42;59.30
69776;DHT22;57049;51.450;-2.516;2023-05-15T07:42:10;15.38;55.36
69776;DHT22;57049;51.450;-2.516;2023-05-15T07:44:36;14.50;57.55
69776;DHT22;57049;51.450;-2.516;2023-05-15T07:47:01;14.30;57.38
69776;DHT22;57049;51.450;-2.516;2023-05-15T07:49:27;15.46;57.24
69776;DHT22;57049;51.450;-2.516;2023-05-15T07:51:53;15.35;54.54
69776;DHT22;57049;51.450;-2.516;2023-05-15T07:54:18;14.26;56.17
69776;DHT22;57049;51.450;-2.516;2023-05-15T07:56:44;14.50;56.75
69776;DHT22;57049;51.450;-2.516;2023-05-15T07:59:09;14.47;56.76
69776;DHT22;57049;51.450;-2.516;2023-05-15T08:01:35;15.63;55.50
69776;DHT22;57049;51.450;-2.516;2023-05-15T08:04:02;16.26;54.55
69776;DHT22;57049;51.450;-2.516;2023-05-15T08:06:27;16.50;53.39
69776;DHT22;57049;51.450;-2.516;2023-05-15T08:08:53;16.21;52.26
69776;DHT22;57049;51.450;-2.516;2023-05-15T08:11:18;15.55;53.82
69776;DHT22;57049;51.450;-2.516;2023-05-15T08:13:44;14.29;56.45
69776;DHT22;57049;51.450;-2.516;2023-05-15T08:16:09;14.49;56.00
69776;DHT22;57049;51.450;-2.516;2023-05-15T08:18:35;14.67;55.42
69776;DHT22;57049;51.450;-2.516;2023-05-15T08:21:00;15.41;54.94
69776;DHT22;57049;51.450;-2.516;2023-05-15T08:23:26;15.56;53.98
69776;DHT22;57049;51.450;-2.516;2023-05-15T08:25:51;15.67;52.64
69776;DHT22;57049;51.450;-2.516;2023-05-15T08:28:16;14.84;54.28
69776;DHT22;57049;51.450;-2.516;2023-05-15T08:30:42;15.65;53.50
69776;DHT22;57049;51.450;-2.516;2023-05-15T08:33:07;15.78;53.18
69776;DHT22;57049;51.450;-2.516;2023-05-15T08:35:33;14.49;56.72
69776;DHT22;57049;51.450;-2.516;2023-05-15T08:37:58;13.95;57.51
69776;DHT22;57049;51.450;-2.516;2023-05-15T08:40:25;13.53;57.77
69776;DHT22;57049;51.450;-2.516;2023-05-15T08:42:54;12.55;60.23
69776;DHT22;57049;51.450;-2.516;2023-05-15T08:45:20;13.21;60.27
69776;DHT22;57049;51.450;-2.516;2023-05-15T08:47:46;15.49;54.57
69776;DHT22;57049;51.450;-2.516;2023-05-15T08:50:13;14.98;54.85
69776;DHT22;57049;51.450;-2.516;2023-05-15T08:52:41;13.81;56.23
69776;DHT22;57049;51.450;-2.516;2023-05-15T08:55:16;13.03;58.73
69776;DHT22;57049;51.450;-2.516;2023-05-15T08:57:42;12.85;58.53
69776;DHT22;57049;51.450;-2.516;2023-05-15T09:00:08;13.31;56.97
69776;DHT22;57049;51.450;-2.516;2023-05-15T09:02:39;13.51;56.08
69776;DHT22;57049;51.450;-2.516;2023-05-15T09:05:06;14.62;54.66
69776;DHT22;57049;51.450;-2.516;2023-05-15T09:07:33;15.05;53.36
69776;DHT22;57049;51.450;-2.516;2023-05-15T09:10:00;15.11;53.57
69776;DHT22;57049;51.450;-2.516;2023-05-15T09:12:26;15.96;52.32
69776;DHT22;57049;51.450;-2.516;2023-05-15T09:15:08;15.56;52.64
69776;DHT22;57049;51.450;-2.516;2023-05-15T09:17:34;15.92;53.16
69776;DHT22;57049;51.450;-2.516;2023-05-15T09:20:01;15.05;52.96
69776;DHT22;57049;51.450;-2.516;2023-05-15T09:22:32;14.69;54.91
69776;DHT22;57049;51.450;-2.516;2023-05-15T09:24:58;14.81;54.02
69776;DHT22;57049;51.450;-2.516;2023-05-15T09:27:24;15.18;55.44
69776;DHT22;57049;51.450;-2.516;2023-05-15T09:29:50;15.83;54.52
69776;DHT22;57049;51.450;-2.516;2023-05-15T09:32:18;15.23;55.13
69776;DHT22;57049;51.450;-2.516;2023-05-15T09:34:44;14.08;58.22
69776;DHT22;57049;51.450;-2.516;2023-05-15T09:37:26;13.91;58.19
69776;DHT22;57049;51.450;-2.516;2023-05-15T09:39:52;13.81;58.61
69776;DHT22;57049;51.450;-2.516;2023-05-15T09:42:17;13.85;59.48
69776;DHT22;57049;51.450;-2.516;2023-05-15T09:44:44;13.68;59.61
69776;DHT22;57049;51.450;-2.516;2023-05-15T09:47:11;13.28;60.31
69776;DHT22;57049;51.450;-2.516;2023-05-15T09:49:37;13.54;60.14
69776;DHT22;57049;51.450;-2.516;2023-05-15T09:52:06;13.54;59.37
69776;DHT22;57049;51.450;-2.516;2023-05-15T09:54:32;13.04;59.68
69776;DHT22;57049;51.450;-2.516;2023-05-15T09:57:07;13.04;58.38
69776;DHT22;57049;51.450;-2.516;2023-05-15T09:59:32;13.04;59.11
69776;DHT22;57049;51.450;-2.516;2023-05-15T10:01:58;13.37;58.74
69776;DHT22;57049;51.450;-2.516;2023-05-15T10:04:23;14.19;56.47
69776;DHT22;57049;51.450;-2.516;2023-05-15T10:06:48;14.05;54.36
69776;DHT22;57049;51.450;-2.516;2023-05-15T10:09:14;13.79;55.63
69776;DHT22;57049;51.450;-2.516;2023-05-15T10:11:49;13.81;54.42
69776;DHT22;57049;51.450;-2.516;2023-05-15T10:14:17;13.89;54.41
69776;DHT22;57049;51.450;-2.516;2023-05-15T10:16:44;14.11;53.23
69776;DHT22;57049;51.450;-2.516;2023-05-15T10:19:11;14.50;54.11
69776;DHT22;57049;51.450;-2.516;2023-05-15T10:21:39;14.26;54.29
69776;DHT22;57049;51.450;-2.516;2023-05-15T10:24:05;14.22;54.00
69776;DHT22;57049;51.450;-2.516;2023-05-15T10:26:39;14.30;55.16
69776;DHT22;57049;51.450;-2.516;2023-05-15T10:29:09;13.85;54.89
69776;DHT22;57049;51.450;-2.516;2023-05-15T10:31:35;13.58;56.10
69776;DHT22;57049;51.450;-2.516;2023-05-15T10:34:02;13.27;56.93
69776;DHT22;57049;51.450;-2.516;2023-05-15T10:36:29;13.21;56.70
69776;DHT22;57049;51.450;-2.516;2023-05-15T10:39:00;13.23;57.69
69776;DHT22;57049;51.450;-2.516;2023-05-15T10:41:28;13.30;57.16
69776;DHT22;57049;51.450;-2.516;2023-05-15T10:43:57;13.81;58.08
69776;DHT22;57049;51.450;-2.516;2023-05-15T10:46:23;14.04;56.37
69776;DHT22;57049;51.450;-2.516;2023-05-15T10:48:49;13.99;55.40
69776;DHT22;57049;51.450;-2.516;2023-05-15T10:51:17;14.42;55.04
69776;DHT22;57049;51.450;-2.516;2023-05-15T10:53:44;14.40;54.23
69776;DHT22;57049;51.450;-2.516;2023-05-15T10:56:14;14.93;55.27
69776;DHT22;57049;51.450;-2.516;2023-05-15T10:58:48;14.26;55.11
69776;DHT22;57049;51.450;-2.516;2023-05-15T11:01:30;14.87;56.32
69776;DHT22;57049;51.450;-2.516;2023-05-15T11:06:32;15.00;53.78
69776;DHT22;57049;51.450;-2.516;2023-05-15T11:11:57;14.25;54.67
69776;DHT22;57049;51.450;-2.516;2023-05-15T11:14:28;14.29;54.21
69776;DHT22;57049;51.450;-2.516;2023-05-15T11:21:59;14.98;51.97
69776;DHT22;57049;51.450;-2.516;2023-05-15T11:24:34;15.51;52.43
69776;DHT22;57049;51.450;-2.516;2023-05-15T11:27:11;14.98;50.77
69776;DHT22;57049;51.450;-2.516;2023-05-15T11:30:10;14.76;52.24
69776;DHT22;57049;51.450;-2.516;2023-05-15T11:32:50;15.27;52.40
69776;DHT22;57049;51.450;-2.516;2023-05-15T11:35:23;14.95;51.99
69776;DHT22;57049;51.450;-2.516;2023-05-15T11:37:52;14.88;53.22
69776;DHT22;57049;51.450;-2.516;2023-05-15T11:40:26;14.57;53.07
69776;DHT22;57049;51.450;-2.516;2023-05-15T11:45:29;15.25;51.36
69776;DHT22;57049;51.450;-2.516;2023-05-15T11:47:55;15.36;51.00
69776;DHT22;57049;51.450;-2.516;2023-05-15T11:50:22;14.60;52.78
69776;DHT22;57049;51.450;-2.516;2023-05-15T11:52:51;14.70;52.21
69776;DHT22;57049;51.450;-2.516;2023-05-15T11:55:18;15.14;51.48
69776;DHT22;57049;51.450;-2.516;2023-05-15T11:57:47;15.55;49.40
69776;DHT22;57049;51.450;-2.516;2023-05-15T12:00:13;15.55;49.14
69776;DHT22;57049;51.450;-2.516;2023-05-15T12:02:39;15.78;49.44
69776;DHT22;57049;51.450;-2.516;2023-05-15T12:05:08;15.31;49.75
69776;DHT22;57049;51.450;-2.516;2023-05-15T12:07:43;15.00;51.58
69776;DHT22;57049;51.450;-2.516;2023-05-15T12:10:10;15.00;51.97
69776;DHT22;57049;51.450;-2.516;2023-05-15T12:12:40;14.85;53.50
69776;DHT22;57049;51.450;-2.516;2023-05-15T12:15:13;14.81;53.25
69776;DHT22;57049;51.450;-2.516;2023-05-15T12:17:40;15.41;52.69
69776;DHT22;57049;51.450;-2.516;2023-05-15T12:20:07;15.48;52.49
69776;DHT22;57049;51.450;-2.516;2023-05-15T12:22:38;15.52;50.52
69776;DHT22;57049;51.450;-2.516;2023-05-15T12:25:05;15.96;50.37
69776;DHT22;57049;51.450;-2.516;2023-05-15T12:27:31;15.65;50.95
69776;DHT22;57049;51.450;-2.516;2023-05-15T12:29:57;15.58;51.14
69776;DHT22;57049;51.450;-2.516;2023-05-15T12:32:23;15.45;53.60
69776;DHT22;57049;51.450;-2.516;2023-05-15T12:34:50;14.73;52.73
69776;DHT22;57049;51.450;-2.516;2023-05-15T12:37:18;15.24;53.28
69776;DHT22;57049;51.450;-2.516;2023-05-15T12:40:02;15.24;52.76
69776;DHT22;57049;51.450;-2.516;2023-05-15T12:42:44;15.12;53.96
69776;DHT22;57049;51.450;-2.516;2023-05-15T12:45:18;14.55;54.66
69776;DHT22;57049;51.450;-2.516;2023-05-15T12:47:46;14.53;53.65
69776;DHT22;57049;51.450;-2.516;2023-05-15T12:50:16;14.47;53.41
69776;DHT22;57049;51.450;-2.516;2023-05-15T12:55:25;14.87;50.78
69776;DHT22;57049;51.450;-2.516;2023-05-15T12:58:11;15.67;48.78
69776;DHT22;57049;51.450;-2.516;2023-05-15T13:00:40;16.14;46.50
69776;DHT22;57049;51.450;-2.516;2023-05-15T13:03:09;15.70;46.91
69776;DHT22;57049;51.450;-2.516;2023-05-15T13:05:36;15.27;46.48
69776;DHT22;57049;51.450;-2.516;2023-05-15T13:08:03;15.79;47.87
69776;DHT22;57049;51.450;-2.516;2023-05-15T13:10:35;15.54;47.23
69776;DHT22;57049;51.450;-2.516;2023-05-15T13:13:01;15.27;47.25
69776;DHT22;57049;51.450;-2.516;2023-05-15T13:15:33;15.28;49.27
69776;DHT22;57049;51.450;-2.516;2023-05-15T13:18:04;15.18;49.21
69776;DHT22;57049;51.450;-2.516;2023-05-15T13:20:38;15.20;50.24
69776;DHT22;57049;51.450;-2.516;2023-05-15T13:23:03;15.14;49.72
69776;DHT22;57049;51.450;-2.516;2023-05-15T13:25:30;15.67;50.36
69776;DHT22;57049;51.450;-2.516;2023-05-15T13:27:57;15.81;48.37
69776;DHT22;57049;51.450;-2.516;2023-05-15T13:30:23;15.83;47.70
69776;DHT22;57049;51.450;-2.516;2023-05-15T13:32:49;16.14;47.99
69776;DHT22;57049;51.450;-2.516;2023-05-15T13:35:15;16.78;47.49
69776;DHT22;57049;51.450;-2.516;2023-05-15T13:37:40;16.56;48.22
69776;DHT22;57049;51.450;-2.516;2023-05-15T13:40:10;16.27;47.35
69776;DHT22;57049;51.450;-2.516;2023-05-15T13:42:37;16.06;46.67
69776;DHT22;57049;51.450;-2.516;2023-05-15T13:45:04;15.52;46.34
69776;DHT22;57049;51.450;-2.516;2023-05-15T13:47:29;15.70;46.52
69776;DHT22;57049;51.450;-2.516;2023-05-15T13:49:55;15.83;46.51
69776;DHT22;57049;51.450;-2.516;2023-05-15T13:52:20;16.24;46.70
69776;DHT22;57049;51.450;-2.516;2023-05-15T13:54:46;16.02;47.13
69776;DHT22;57049;51.450;-2.516;2023-05-15T13:57:11;16.07;47.21
69776;DHT22;57049;51.450;-2.516;2023-05-15T13:59:36;15.72;47.60
69776;DHT22;57049;51.450;-2.516;2023-05-15T14:02:02;15.72;48.47
69776;DHT22;57049;51.450;-2.516;2023-05-15T14:04:27;15.93;48.10
69776;DHT22;57049;51.450;-2.516;2023-05-15T14:06:54;15.63;48.97
69776;DHT22;57049;51.450;-2.516;2023-05-15T14:09:20;15.30;47.38
69776;DHT22;57049;51.450;-2.516;2023-05-15T14:11:45;15.35;47.90
69776;DHT22;57049;51.450;-2.516;2023-05-15T14:14:11;15.30;49.00
69776;DHT22;57049;51.450;-2.516;2023-05-15T14:16:36;15.67;49.07
69776;DHT22;57049;51.450;-2.516;2023-05-15T14:19:02;15.38;48.35
69776;DHT22;57049;51.450;-2.516;2023-05-15T14:21:27;15.04;46.52
69776;DHT22;57049;51.450;-2.516;2023-05-15T14:23:53;14.95;47.10
69776;DHT22;57049;51.450;-2.516;2023-05-15T14:26:18;15.35;43.61
69776;DHT22;57049;51.450;-2.516;2023-05-15T14:28:44;15.86;43.90
69776;DHT22;57049;51.450;-2.516;2023-05-15T14:31:11;16.31;42.93
69776;DHT22;57049;51.450;-2.516;2023-05-15T14:33:36;16.57;41.32
69776;DHT22;57049;51.450;-2.516;2023-05-15T14:36:02;17.18;42.44
69776;DHT22;57049;51.450;-2.516;2023-05-15T14:38:29;17.25;40.79
69776;DHT22;57049;51.450;-2.516;2023-05-15T14:40:55;17.04;42.19
69776;DHT22;57049;51.450;-2.516;2023-05-15T14:43:20;16.88;41.41
69776;DHT22;57049;51.450;-2.516;2023-05-15T14:45:46;17.49;44.00
69776;DHT22;57049;51.450;-2.516;2023-05-15T14:48:11;17.35;41.08
69776;DHT22;57049;51.450;-2.516;2023-05-15T14:50:37;17.29;42.32
69776;DHT22;57049;51.450;-2.516;2023-05-15T14:53:02;16.24;44.37
69776;DHT22;57049;51.450;-2.516;2023-05-15T14:55:28;16.40;41.73
69776;DHT22;57049;51.450;-2.516;2023-05-15T14:57:53;16.77;41.80
69776;DHT22;57049;51.450;-2.516;2023-05-15T15:00:19;17.08;41.92
69776;DHT22;57049;51.450;-2.516;2023-05-15T15:02:44;16.91;42.57
69776;DHT22;57049;51.450;-2.516;2023-05-15T15:05:12;16.67;42.53
69776;DHT22;57049;51.450;-2.516;2023-05-15T15:08:03;16.50;42.27
69776;DHT22;57049;51.450;-2.516;2023-05-15T15:10:30;16.57;42.94
69776;DHT22;57049;51.450;-2.516;2023-05-15T15:12:56;16.21;44.04
69776;DHT22;57049;51.450;-2.516;2023-05-15T15:15:21;16.54;43.46
69776;DHT22;57049;51.450;-2.516;2023-05-15T15:17:48;15.90;43.51
69776;DHT22;57049;51.450;-2.516;2023-05-15T15:20:17;15.95;44.29
69776;DHT22;57049;51.450;-2.516;2023-05-15T15:22:42;15.81;45.46
69776;DHT22;57049;51.450;-2.516;2023-05-15T15:25:08;16.56;44.76
69776;DHT22;57049;51.450;-2.516;2023-05-15T15:27:34;16.89;43.91
69776;DHT22;57049;51.450;-2.516;2023-05-15T15:30:06;16.92;45.06
69776;DHT22;57049;51.450;-2.516;2023-05-15T15:32:33;16.68;43.97
69776;DHT22;57049;51.450;-2.516;2023-05-15T15:34:59;16.46;44.03
69776;DHT22;57049;51.450;-2.516;2023-05-15T15:37:28;16.72;44.12
69776;DHT22;57049;51.450;-2.516;2023-05-15T15:39:54;16.63;43.63
69776;DHT22;57049;51.450;-2.516;2023-05-15T15:42:19;16.84;45.37
69776;DHT22;57049;51.450;-2.516;2023-05-15T15:44:44;16.26;45.59
69776;DHT22;57049;51.450;-2.516;2023-05-15T15:47:10;15.92;47.39
69776;DHT22;57049;51.450;-2.516;2023-05-15T15:49:35;15.38;46.78
69776;DHT22;57049;51.450;-2.516;2023-05-15T15:52:01;15.62;48.06